createdAt,value
2023-01-04T00:02:11.628Z,12.35
2023-01-04T00:05:13.688Z,12.25
2023-01-04T00:08:15.703Z,12.30
2023-01-04T00:11:18.864Z,12.30
2023-01-04T00:14:21.094Z,12.45
2023-01-04T00:17:23.042Z,12.70
2023-01-04T00:20:25.063Z,14.63
2023-01-04T00:23:26.984Z,13.70
2023-01-04T00:26:30.190Z,13.07
2023-01-04T00:29:33.268Z,12.13
2023-01-04T00:32:35.663Z,13.30
2023-01-04T00:35:45.869Z,12.65
2023-01-04T00:39:07.118Z,13.35
2023-01-04T00:42:10.326Z,13.07
2023-01-04T00:45:12.378Z,12.77
2023-01-04T00:48:14.331Z,13.32
2023-01-04T00:51:16.245Z,14.53
2023-01-04T00:54:18.850Z,14.40
2023-01-04T00:57:20.783Z,15.68
2023-01-04T01:00:23.835Z,14.15
2023-01-04T01:03:25.854Z,16.08
2023-01-04T01:06:29.074Z,16.98
2023-01-04T01:09:31.440Z,16.40
2023-01-04T01:12:33.455Z,15.20
2023-01-04T01:15:35.443Z,15.38
2023-01-04T01:18:39.122Z,14.82
2023-01-04T01:21:41.167Z,15.00
2023-01-04T01:24:43.199Z,14.88
2023-01-04T01:27:45.516Z,14.38
2023-01-04T01:30:47.590Z,13.75
2023-01-04T01:33:50.574Z,11.88
2023-01-04T01:36:52.583Z,11.07
2023-01-04T01:39:54.612Z,10.10
2023-01-04T01:42:56.685Z,9.37
2023-01-04T01:45:58.704Z,9.27
2023-01-04T01:49:21.136Z,9.40
2023-01-04T01:52:25.233Z,10.50
2023-01-04T01:55:27.892Z,9.55
2023-01-04T01:58:31.514Z,9.32
2023-01-04T02:01:33.638Z,9.05
2023-01-04T02:04:36.159Z,8.60
2023-01-04T02:07:38.087Z,8.77
2023-01-04T02:10:40.165Z,7.53
2023-01-04T02:14:00.459Z,9.47
2023-01-04T02:17:05.721Z,8.35
2023-01-04T02:20:19.832Z,8.20
2023-01-04T02:23:37.490Z,7.77
2023-01-04T02:26:58.179Z,7.65
2023-01-04T02:30:05.974Z,7.05
2023-01-04T02:33:08.520Z,6.70
2023-01-04T02:36:14.333Z,7.32
2023-01-04T02:39:20.239Z,6.68
2023-01-04T02:42:25.485Z,6.00
2023-01-04T02:45:29.488Z,6.83
2023-01-04T02:48:56.817Z,5.80
2023-01-04T02:51:58.908Z,6.25
2023-01-04T02:55:00.941Z,5.57
2023-01-04T02:58:07.396Z,6.40
2023-01-04T03:01:28.133Z,6.50
2023-01-04T03:05:05.453Z,6.30
2023-01-04T03:08:10.368Z,6.18
2023-01-04T03:11:31.970Z,7.32
2023-01-04T03:14:35.562Z,5.93
2023-01-04T03:17:50.914Z,5.90
2023-01-04T03:20:53.181Z,6.15
2023-01-04T03:24:14.297Z,5.85
2023-01-04T03:27:35.532Z,6.23
2023-01-04T03:31:00.312Z,5.78
2023-01-04T03:34:21.015Z,6.85
2023-01-04T03:37:29.713Z,7.20
2023-01-04T03:40:50.609Z,5.78
2023-01-04T03:44:13.359Z,6.45
2023-01-04T03:47:36.605Z,5.90
2023-01-04T03:50:39.625Z,5.77
2023-01-04T03:53:46.781Z,6.07
2023-01-04T03:56:48.744Z,5.90
2023-01-04T03:59:52.326Z,5.80
2023-01-04T04:02:54.525Z,6.45
2023-01-04T04:06:15.524Z,7.20
2023-01-04T04:09:17.625Z,8.70
2023-01-04T04:12:19.570Z,9.30
2023-01-04T04:15:21.491Z,10.52
2023-01-04T04:18:23.578Z,10.13
2023-01-04T04:21:25.941Z,7.87
2023-01-04T04:24:27.972Z,8.55
2023-01-04T04:27:30.211Z,7.25
2023-01-04T04:30:32.165Z,6.80
2023-01-04T04:33:34.473Z,6.25
2023-01-04T04:36:36.439Z,12.38
2023-01-04T04:39:38.539Z,11.75
2023-01-04T04:42:40.597Z,24.00
2023-01-04T04:45:42.640Z,29.50
2023-01-04T04:48:45.162Z,12.50
2023-01-04T04:51:47.618Z,8.27
2023-01-04T04:54:49.966Z,8.38
2023-01-04T04:57:52.423Z,7.57
2023-01-04T05:00:54.493Z,6.93
2023-01-04T05:03:56.710Z,7.38
2023-01-04T05:06:58.692Z,7.07
2023-01-04T05:10:00.715Z,7.47
2023-01-04T05:13:02.802Z,7.68
2023-01-04T05:16:05.576Z,11.77
2023-01-04T05:19:07.549Z,11.50
2023-01-04T05:22:09.756Z,11.07
2023-01-04T05:25:12.256Z,9.70
2023-01-04T05:28:14.405Z,12.25
2023-01-04T05:31:16.365Z,11.30
2023-01-04T05:34:22.125Z,15.50
2023-01-04T05:37:25.739Z,26.13
2023-01-04T05:40:27.793Z,24.75
2023-01-04T05:43:29.853Z,12.02
2023-01-04T05:46:32.314Z,11.35
2023-01-04T05:49:34.363Z,10.98
2023-01-04T05:52:36.630Z,10.27
2023-01-04T05:55:39.102Z,10.20
2023-01-04T05:58:41.448Z,9.38
2023-01-04T06:01:43.485Z,10.90
2023-01-04T06:04:45.560Z,10.20
2023-01-04T06:07:47.720Z,9.68
2023-01-04T06:10:53.029Z,9.30
2023-01-04T06:13:55.021Z,9.70
2023-01-04T06:16:57.083Z,10.63
2023-01-04T06:19:59.167Z,11.05
2023-01-04T06:23:01.452Z,10.23
2023-01-04T06:26:03.499Z,12.98
2023-01-04T06:29:06.013Z,11.05
2023-01-04T06:32:08.010Z,11.07
2023-01-04T06:35:10.172Z,10.90
2023-01-04T06:38:12.135Z,12.80
2023-01-04T06:41:14.681Z,12.68
2023-01-04T06:44:16.636Z,12.00
2023-01-04T06:47:19.129Z,14.52
2023-01-04T06:50:21.137Z,18.55
2023-01-04T06:53:23.308Z,44.07
2023-01-04T06:56:25.260Z,39.03
2023-01-04T06:59:27.641Z,40.58
2023-01-04T07:02:30.246Z,40.40
2023-01-04T07:05:32.850Z,34.22
2023-01-04T07:08:35.037Z,37.63
2023-01-04T07:11:37.015Z,25.30
2023-01-04T07:14:38.920Z,19.88
2023-01-04T07:17:41.150Z,19.08
2023-01-04T07:20:43.832Z,18.92
2023-01-04T07:23:46.359Z,21.40
2023-01-04T07:26:48.290Z,18.77
2023-01-04T07:29:50.695Z,16.92
2023-01-04T07:32:52.973Z,17.30
2023-01-04T07:35:54.925Z,15.77
2023-01-04T07:38:59.102Z,13.25
2023-01-04T07:42:01.252Z,14.52
2023-01-04T07:45:05.505Z,15.57
2023-01-04T07:48:07.963Z,16.05
2023-01-04T07:51:10.391Z,16.80
2023-01-04T07:54:12.904Z,17.17
2023-01-04T07:57:14.862Z,18.65
2023-01-04T08:00:17.254Z,22.88
2023-01-04T08:03:19.254Z,21.83
2023-01-04T08:06:21.453Z,22.17
2023-01-04T08:09:23.422Z,27.63
2023-01-04T08:12:25.359Z,38.65
2023-01-04T08:15:27.894Z,36.78
2023-01-04T08:18:33.642Z,47.30
2023-01-04T08:21:35.829Z,30.10
2023-01-04T08:24:38.317Z,24.70
2023-01-04T08:27:41.855Z,20.30
2023-01-04T08:30:44.374Z,15.70
2023-01-04T08:33:46.332Z,16.43
2023-01-04T08:36:49.114Z,21.67
2023-01-04T08:39:51.526Z,23.23
2023-01-04T08:42:53.625Z,21.55
2023-01-04T08:45:55.618Z,20.05
2023-01-04T08:48:58.060Z,18.30
2023-01-04T08:52:00.507Z,16.45
2023-01-04T08:55:06.781Z,14.07
2023-01-04T08:58:12.253Z,13.82
2023-01-04T09:01:14.642Z,13.68
2023-01-04T09:04:16.823Z,13.10
2023-01-04T09:07:18.861Z,12.65
2023-01-04T09:10:20.852Z,13.63
2023-01-04T09:13:22.936Z,12.98
2023-01-04T09:16:25.282Z,13.43
2023-01-04T09:19:27.317Z,12.00
2023-01-04T09:22:31.048Z,11.35
2023-01-04T09:25:33.464Z,10.93
2023-01-04T09:28:35.527Z,9.98
2023-01-04T09:31:37.928Z,11.98
2023-01-04T09:34:40.096Z,13.70
2023-01-04T09:37:42.121Z,12.20
2023-01-04T09:40:50.757Z,14.68
2023-01-04T09:44:01.737Z,13.90
2023-01-04T09:47:08.467Z,12.63
2023-01-04T09:50:13.080Z,11.75
2023-01-04T09:53:25.535Z,11.68
2023-01-04T09:56:28.699Z,10.90
2023-01-04T09:59:31.803Z,10.30
2023-01-04T10:02:50.266Z,9.10
2023-01-04T10:05:53.027Z,6.78
2023-01-04T10:08:56.302Z,7.47
2023-01-04T10:12:04.927Z,7.22
2023-01-04T10:15:33.224Z,7.73
2023-01-04T10:19:36.969Z,7.38
2023-01-04T10:22:26.043Z,5.40
2023-01-04T10:25:39.584Z,5.72
2023-01-04T10:29:00.509Z,5.40
2023-01-04T10:32:11.380Z,5.90
2023-01-04T10:35:16.775Z,5.80
2023-01-04T10:38:25.864Z,5.88
2023-01-04T10:41:28.796Z,4.30
2023-01-04T10:44:36.499Z,4.57
2023-01-04T10:47:57.693Z,5.00
2023-01-04T10:51:08.986Z,5.05
2023-01-04T10:54:44.815Z,5.72
2023-01-04T10:57:55.421Z,9.57
2023-01-04T11:01:00.544Z,5.40
2023-01-04T11:04:08.768Z,16.70
2023-01-04T11:07:13.295Z,6.45
2023-01-04T11:10:16.198Z,6.22
2023-01-04T11:13:18.566Z,6.57
2023-01-04T11:16:20.595Z,7.60
2023-01-04T11:19:22.587Z,6.78
2023-01-04T11:22:26.276Z,9.05
2023-01-04T11:25:36.781Z,9.77
2023-01-04T11:28:55.607Z,9.20
2023-01-04T11:32:01.381Z,7.27
2023-01-04T11:35:04.120Z,13.32
2023-01-04T11:38:12.157Z,10.98
2023-01-04T11:41:15.806Z,13.02
2023-01-04T11:44:19.216Z,11.00
2023-01-04T11:47:23.353Z,11.77
2023-01-04T11:50:34.918Z,13.40
2023-01-04T11:53:37.302Z,11.27
2023-01-04T11:56:39.420Z,11.57
2023-01-04T11:59:41.490Z,13.07
2023-01-04T12:06:17.592Z,10.95
2023-01-04T12:09:19.916Z,10.55
2023-01-04T12:12:22.108Z,9.40
2023-01-04T12:15:28.000Z,9.50
2023-01-04T12:18:30.906Z,9.27
2023-01-04T12:21:33.602Z,8.60
2023-01-04T12:24:36.054Z,8.32
2023-01-04T12:27:38.137Z,7.97
2023-01-04T12:30:46.971Z,8.32
2023-01-04T12:33:52.436Z,8.43
2023-01-04T12:37:04.551Z,8.85
2023-01-04T12:40:28.054Z,8.25
2023-01-04T12:43:30.483Z,8.82
2023-01-04T12:46:52.735Z,9.27
2023-01-04T12:49:57.896Z,8.50
2023-01-04T12:56:23.170Z,8.57
2023-01-04T12:59:32.386Z,8.40
2023-01-04T13:02:44.212Z,8.60
2023-01-04T13:05:57.018Z,8.43
2023-01-04T13:09:00.112Z,8.18
2023-01-04T13:12:04.987Z,7.97
2023-01-04T13:15:08.169Z,8.50
2023-01-04T13:18:25.707Z,7.70
2023-01-04T13:21:43.967Z,8.47
2023-01-04T13:24:46.078Z,7.80
2023-01-04T13:27:54.670Z,7.05
2023-01-04T13:30:59.608Z,7.95
2023-01-04T13:34:01.995Z,7.85
2023-01-04T13:37:10.170Z,7.80
2023-01-04T13:40:19.162Z,8.63
2023-01-04T13:43:39.962Z,8.80
2023-01-04T13:46:42.123Z,8.52
2023-01-04T13:49:44.202Z,8.40
2023-01-04T13:53:00.015Z,9.70
2023-01-04T13:56:15.838Z,11.20
2023-01-04T13:59:17.865Z,13.10
2023-01-04T14:02:21.103Z,12.32
2023-01-04T14:05:23.273Z,12.63
2023-01-04T14:08:27.932Z,14.13
2023-01-04T14:11:52.497Z,13.07
2023-01-04T14:14:58.593Z,13.43
2023-01-04T14:18:00.796Z,15.10
2023-01-04T14:21:02.916Z,14.90
2023-01-04T14:24:05.945Z,17.93
2023-01-04T14:27:27.169Z,18.38
2023-01-04T14:30:29.259Z,20.13
2023-01-04T14:33:32.224Z,20.73
2023-01-04T14:36:36.476Z,20.42
2023-01-04T14:39:38.940Z,21.93
2023-01-04T14:42:41.253Z,23.73
2023-01-04T14:45:43.418Z,24.60
2023-01-04T14:48:45.384Z,23.95
2023-01-04T14:51:48.740Z,23.27
2023-01-04T14:54:51.305Z,25.03
2023-01-04T14:57:53.294Z,24.92
2023-01-04T15:00:55.796Z,25.30
2023-01-04T15:03:58.044Z,25.73
2023-01-04T15:07:00.191Z,23.65
2023-01-04T15:10:02.907Z,27.17
2023-01-04T15:13:05.459Z,27.77
2023-01-04T15:16:07.771Z,26.87
2023-01-04T15:19:10.233Z,26.80
2023-01-04T15:22:12.596Z,24.55
2023-01-04T15:25:14.957Z,25.70
2023-01-04T15:28:16.981Z,27.00
2023-01-04T15:31:24.028Z,26.95
2023-01-04T15:34:30.930Z,27.40
2023-01-04T15:37:33.074Z,30.67
2023-01-04T15:40:35.969Z,33.80
2023-01-04T15:43:38.100Z,35.78
2023-01-04T15:46:40.514Z,32.25
2023-01-04T15:49:42.676Z,32.03
2023-01-04T15:52:44.688Z,54.45
2023-01-04T15:55:47.048Z,36.60
2023-01-04T15:58:53.042Z,32.35
2023-01-04T16:01:55.109Z,26.67
2023-01-04T16:04:57.310Z,26.73
2023-01-04T16:07:59.747Z,28.13
2023-01-04T16:11:12.105Z,26.93
2023-01-04T16:14:14.063Z,31.55
2023-01-04T16:17:16.483Z,32.95
2023-01-04T16:20:18.819Z,34.43
2023-01-04T16:23:27.220Z,29.88
2023-01-04T16:26:29.267Z,36.72
2023-01-04T16:29:31.653Z,38.65
2023-01-04T16:32:34.529Z,33.33
2023-01-04T16:35:36.444Z,32.60
2023-01-04T16:38:38.999Z,30.00
2023-01-04T16:41:41.057Z,37.17
2023-01-04T16:44:43.038Z,35.60
2023-01-04T16:47:46.063Z,29.90
2023-01-04T16:50:48.401Z,31.20
2023-01-04T16:53:50.917Z,31.60
2023-01-04T16:56:54.706Z,31.60
2023-01-04T16:59:56.718Z,34.10
2023-01-04T17:02:59.128Z,31.83
2023-01-04T17:06:01.466Z,48.08
2023-01-04T17:09:03.616Z,27.98
2023-01-04T17:15:44.318Z,23.90
2023-01-04T17:18:46.769Z,21.60
2023-01-04T17:21:48.882Z,21.20
2023-01-04T17:24:51.201Z,20.70
2023-01-04T17:27:53.440Z,20.23
2023-01-04T17:30:55.421Z,19.40
2023-01-04T17:33:57.828Z,20.48
2023-01-04T17:36:59.802Z,21.75
2023-01-04T17:40:01.905Z,20.73
2023-01-04T17:43:03.933Z,19.77
2023-01-04T17:46:06.815Z,20.40
2023-01-04T17:49:31.265Z,23.10
2023-01-04T17:52:32.839Z,24.57
2023-01-04T17:55:35.606Z,25.50
2023-01-04T17:58:37.608Z,24.58
2023-01-04T18:01:40.067Z,24.52
2023-01-04T18:04:42.603Z,24.88
2023-01-04T18:07:44.562Z,22.88
2023-01-04T18:11:06.860Z,23.58
2023-01-04T18:14:11.866Z,23.07
2023-01-04T18:17:16.522Z,22.38
2023-01-04T18:20:24.555Z,22.20
2023-01-04T18:23:29.148Z,23.67
2023-01-04T18:26:37.004Z,24.40
2023-01-04T18:29:53.919Z,25.15
2023-01-04T18:32:55.970Z,27.23
2023-01-04T18:36:01.891Z,27.30
2023-01-04T18:39:04.245Z,28.80
2023-01-04T18:42:06.253Z,25.90
2023-01-04T18:45:08.750Z,24.60
2023-01-04T18:48:10.734Z,25.08
2023-01-04T18:51:12.941Z,24.95
2023-01-04T18:54:20.622Z,28.90
2023-01-04T18:57:22.664Z,29.90
2023-01-04T19:00:29.914Z,31.27
2023-01-04T19:03:32.776Z,29.23
2023-01-04T19:06:34.888Z,27.85
2023-01-04T19:09:37.275Z,29.77
2023-01-04T19:12:39.304Z,28.85
2023-01-04T19:15:47.715Z,27.60
2023-01-04T19:18:50.276Z,27.50
2023-01-04T19:21:53.075Z,25.20
2023-01-04T19:24:55.482Z,25.37
2023-01-04T19:27:57.585Z,26.77
2023-01-04T19:31:04.604Z,27.52
2023-01-04T19:34:08.763Z,29.15
2023-01-04T19:37:10.683Z,29.10
2023-01-04T19:40:12.719Z,26.23
2023-01-04T19:43:15.987Z,26.88
2023-01-04T19:46:18.750Z,22.77
2023-01-04T19:49:21.164Z,22.73
2023-01-04T19:52:23.719Z,30.17
2023-01-04T19:55:29.727Z,28.07
2023-01-04T19:58:31.829Z,23.65
2023-01-04T20:01:33.973Z,27.17
2023-01-04T20:04:36.061Z,22.88
2023-01-04T20:07:38.112Z,22.95
2023-01-04T20:10:40.577Z,20.40
2023-01-04T20:13:42.550Z,22.63
2023-01-04T20:16:44.792Z,22.53
2023-01-04T20:19:46.855Z,23.48
2023-01-04T20:22:53.095Z,21.45
2023-01-04T20:25:55.176Z,21.80
2023-01-04T20:28:57.253Z,20.60
2023-01-04T20:32:00.812Z,20.60
2023-01-04T20:35:03.585Z,21.85
2023-01-04T20:38:06.011Z,23.48
2023-01-04T20:41:08.816Z,26.17
2023-01-04T20:44:11.248Z,25.83
2023-01-04T20:47:13.356Z,23.90
2023-01-04T20:50:15.338Z,23.65
2023-01-04T20:53:17.432Z,23.88
2023-01-04T20:56:23.513Z,22.27
2023-01-04T20:59:25.463Z,23.67
2023-01-04T21:02:27.593Z,22.75
2023-01-04T21:05:30.090Z,23.25
2023-01-04T21:08:32.635Z,24.33
2023-01-04T21:11:35.157Z,24.63
2023-01-04T21:14:38.304Z,24.38
2023-01-04T21:17:40.816Z,22.40
2023-01-04T21:20:43.162Z,20.65
2023-01-04T21:23:45.606Z,19.85
2023-01-04T21:26:47.585Z,17.93
2023-01-04T21:29:49.551Z,19.23
2023-01-04T21:32:51.737Z,18.67
2023-01-04T21:35:54.114Z,19.13
2023-01-04T21:38:56.762Z,17.40
2023-01-04T21:41:58.923Z,18.92
2023-01-04T21:45:00.935Z,19.23
2023-01-04T21:48:02.868Z,19.17
2023-01-04T21:51:05.442Z,18.50
2023-01-04T21:54:07.465Z,20.02
2023-01-04T21:57:09.443Z,19.77
2023-01-04T22:00:11.596Z,20.45
2023-01-04T22:03:13.760Z,20.45
2023-01-04T22:06:15.720Z,19.77
2023-01-04T22:09:17.693Z,19.70
2023-01-04T22:12:20.193Z,20.92
2023-01-04T22:15:22.584Z,18.55
2023-01-04T22:18:24.574Z,17.77
2023-01-04T22:21:27.465Z,17.52
2023-01-04T22:24:32.679Z,16.73
2023-01-04T22:27:39.397Z,16.48
2023-01-04T22:30:42.013Z,16.02
2023-01-04T22:33:44.441Z,16.45
2023-01-04T22:36:46.484Z,16.13
2023-01-04T22:39:48.417Z,14.37
2023-01-04T22:42:50.415Z,15.38
2023-01-04T22:45:58.741Z,15.45
2023-01-04T22:49:00.761Z,15.27
2023-01-04T22:52:02.946Z,14.35
2023-01-04T22:55:05.627Z,15.65
2023-01-04T22:58:07.610Z,14.77
2023-01-04T23:01:09.736Z,14.70
2023-01-04T23:04:12.281Z,15.38
2023-01-04T23:07:14.579Z,14.85
2023-01-04T23:10:16.977Z,14.87
2023-01-04T23:13:18.956Z,15.30
2023-01-04T23:16:24.798Z,16.75
2023-01-04T23:19:30.172Z,14.90
2023-01-04T23:22:38.540Z,14.18
2023-01-04T23:25:40.901Z,14.48
2023-01-04T23:28:43.134Z,16.05
2023-01-04T23:31:45.265Z,16.03
2023-01-04T23:34:51.791Z,16.90
2023-01-04T23:37:53.814Z,16.58
2023-01-04T23:40:55.895Z,17.17
2023-01-04T23:43:57.802Z,15.15
2023-01-04T23:50:07.208Z,14.38
2023-01-04T23:53:09.325Z,13.57
2023-01-04T23:56:14.605Z,14.23
2023-01-04T23:59:16.777Z,13.98
